sensor_id;sensor_type;location;lat;lon;timestamp;pressure;altitude;pressure_sealevel;temperature;humidity
58239;BME280;44037;55.638;37.356;2023-02-01T00:02:29;97800.19;;;1.55;95.88
58239;BME280;44037;55.638;37.356;2023-02-01T00:04:56;97796.81;;;1.56;96.09
58239;BME280;44037;55.638;37.356;2023-02-01T00:07:24;97801.94;;;1.56;96.28
58239;BME280;44037;55.638;37.356;2023-02-01T00:09:51;97790.91;;;1.60;96.12
58239;BME280;44037;55.638;37.356;2023-02-01T00:12:18;97796.88;;;1.60;96.03
58239;BME280;44037;55.638;37.356;2023-02-01T00:14:47;97797.69;;;1.58;95.61
58239;BME280;44037;55.638;37.356;2023-02-01T00:17:14;97792.50;;;1.53;95.54
58239;BME280;44037;55.638;37.356;2023-02-01T00:19:41;97786.53;;;1.51;95.69
58239;BME280;44037;55.638;37.356;2023-02-01T00:22:08;97795.88;;;1.49;95.61
58239;BME280;44037;55.638;37.356;2023-02-01T00:24:35;97797.53;;;1.47;95.56
58239;BME280;44037;55.638;37.356;2023-02-01T00:27:02;97782.16;;;1.44;95.32
58239;BME280;44037;55.638;37.356;2023-02-01T00:29:29;97794.06;;;1.43;95.62
58239;BME280;44037;55.638;37.356;2023-02-01T00:31:58;97799.19;;;1.45;95.52
58239;BME280;44037;55.638;37.356;2023-02-01T00:34:25;97786.44;;;1.45;95.48
58239;BME280;44037;55.638;37.356;2023-02-01T00:36:53;97793.25;;;1.44;95.48
58239;BME280;44037;55.638;37.356;2023-02-01T00:39:20;97785.53;;;1.43;95.56
58239;BME280;44037;55.638;37.356;2023-02-01T00:41:47;97794.00;;;1.38;95.14
58239;BME280;44037;55.638;37.356;2023-02-01T00:44:14;97794.78;;;1.36;95.16
58239;BME280;44037;55.638;37.356;2023-02-01T00:46:41;97789.69;;;1.36;95.37
58239;BME280;44037;55.638;37.356;2023-02-01T00:49:09;97782.91;;;1.36;95.45
58239;BME280;44037;55.638;37.356;2023-02-01T00:51:36;97794.00;;;1.40;95.58
58239;BME280;44037;55.638;37.356;2023-02-01T00:54:03;97797.41;;;1.41;95.41
58239;BME280;44037;55.638;37.356;2023-02-01T00:56:31;97797.47;;;1.44;95.61
58239;BME280;44037;55.638;37.356;2023-02-01T00:58:58;97790.69;;;1.46;95.68
58239;BME280;44037;55.638;37.356;2023-02-01T01:01:26;97792.41;;;1.47;95.34
58239;BME280;44037;55.638;37.356;2023-02-01T01:03:55;97785.59;;;1.46;95.46
58239;BME280;44037;55.638;37.356;2023-02-01T01:06:26;97790.69;;;1.44;95.07
58239;BME280;44037;55.638;37.356;2023-02-01T01:08:54;97802.56;;;1.44;95.17
58239;BME280;44037;55.638;37.356;2023-02-01T01:11:23;97799.13;;;1.42;95.33
58239;BME280;44037;55.638;37.356;2023-02-01T01:13:52;97795.75;;;1.43;95.31
58239;BME280;44037;55.638;37.356;2023-02-01T01:16:21;97796.63;;;1.43;95.22
58239;BME280;44037;55.638;37.356;2023-02-01T01:18:49;97801.75;;;1.46;95.10
58239;BME280;44037;55.638;37.356;2023-02-01T01:21:16;97804.28;;;1.45;95.18
58239;BME280;44037;55.638;37.356;2023-02-01T01:23:46;97808.50;;;1.43;94.92
58239;BME280;44037;55.638;37.356;2023-02-01T01:26:15;97802.56;;;1.42;95.05
58239;BME280;44037;55.638;37.356;2023-02-01T01:28:43;97812.72;;;1.41;94.80
58239;BME280;44037;55.638;37.356;2023-02-01T01:31:11;97802.50;;;1.37;94.87
58239;BME280;44037;55.638;37.356;2023-02-01T01:33:38;97805.03;;;1.37;95.10
58239;BME280;44037;55.638;37.356;2023-02-01T01:36:06;97807.63;;;1.41;95.12
58239;BME280;44037;55.638;37.356;2023-02-01T01:38:35;97811.06;;;1.41;94.78
58239;BME280;44037;55.638;37.356;2023-02-01T01:41:04;97805.94;;;1.41;94.74
58239;BME280;44037;55.638;37.356;2023-02-01T01:43:50;97813.59;;;1.41;94.71
58239;BME280;44037;55.638;37.356;2023-02-01T01:46:19;97820.38;;;1.41;94.46
58239;BME280;44037;55.638;37.356;2023-02-01T01:48:48;97811.88;;;1.38;94.73
58239;BME280;44037;55.638;37.356;2023-02-01T01:51:20;97814.44;;;1.40;94.77
58239;BME280;44037;55.638;37.356;2023-02-01T01:53:52;97811.94;;;1.45;95.11
58239;BME280;44037;55.638;37.356;2023-02-01T01:56:25;97811.94;;;1.43;94.52
58239;BME280;44037;55.638;37.356;2023-02-01T01:58:53;97811.06;;;1.43;94.49
58239;BME280;44037;55.638;37.356;2023-02-01T02:01:20;97815.34;;;1.45;94.79
58239;BME280;44037;55.638;37.356;2023-02-01T02:03:47;97812.84;;;1.47;94.94
58239;BME280;44037;55.638;37.356;2023-02-01T02:06:23;97806.91;;;1.49;94.78
58239;BME280;44037;55.638;37.356;2023-02-01T02:08:53;97813.78;;;1.53;95.10
58239;BME280;44037;55.638;37.356;2023-02-01T02:11:20;97820.63;;;1.55;94.95
58239;BME280;44037;55.638;37.356;2023-02-01T02:16:52;97818.88;;;1.52;94.66
58239;BME280;44037;55.638;37.356;2023-02-01T02:25:47;97825.69;;;1.53;94.58
58239;BME280;44037;55.638;37.356;2023-02-01T02:34:40;97833.28;;;1.48;93.95
58239;BME280;44037;55.638;37.356;2023-02-01T02:37:21;97831.59;;;1.49;94.40
58239;BME280;44037;55.638;37.356;2023-02-01T02:39:56;97826.53;;;1.52;94.52
58239;BME280;44037;55.638;37.356;2023-02-01T02:42:29;97830.78;;;1.51;94.34
58239;BME280;44037;55.638;37.356;2023-02-01T02:45:39;97832.50;;;1.54;94.45
58239;BME280;44037;55.638;37.356;2023-02-01T02:48:25;97835.97;;;1.56;94.35
58239;BME280;44037;55.638;37.356;2023-02-01T02:51:00;97831.69;;;1.55;94.47
58239;BME280;44037;55.638;37.356;2023-02-01T02:53:51;97834.22;;;1.53;94.13
58239;BME280;44037;55.638;37.356;2023-02-01T02:56:37;97839.31;;;1.53;93.72
58239;BME280;44037;55.638;37.356;2023-02-01T02:59:24;97835.88;;;1.51;94.11
58239;BME280;44037;55.638;37.356;2023-02-01T03:02:11;97830.78;;;1.51;94.28
58239;BME280;44037;55.638;37.356;2023-02-01T03:04:56;97834.16;;;1.50;94.08
58239;BME280;44037;55.638;37.356;2023-02-01T03:08:00;97835.00;;;1.49;94.25
58239;BME280;44037;55.638;37.356;2023-02-01T03:10:37;97840.16;;;1.51;94.16
58239;BME280;44037;55.638;37.356;2023-02-01T03:13:13;97826.50;;;1.50;94.16
58239;BME280;44037;55.638;37.356;2023-02-01T03:15:46;97829.88;;;1.49;94.06
58239;BME280;44037;55.638;37.356;2023-02-01T03:18:20;97833.31;;;1.50;94.40
58239;BME280;44037;55.638;37.356;2023-02-01T03:20:51;97836.72;;;1.52;94.09
58239;BME280;44037;55.638;37.356;2023-02-01T03:23:26;97841.03;;;1.55;94.45
58239;BME280;44037;55.638;37.356;2023-02-01T03:25:56;97835.06;;;1.54;94.29
58239;BME280;44037;55.638;37.356;2023-02-01T03:28:25;97832.56;;;1.56;94.27
58239;BME280;44037;55.638;37.356;2023-02-01T03:30:54;97832.56;;;1.56;94.23
58239;BME280;44037;55.638;37.356;2023-02-01T03:33:23;97839.41;;;1.58;94.34
58239;BME280;44037;55.638;37.356;2023-02-01T03:35:59;97846.16;;;1.56;94.19
58239;BME280;44037;55.638;37.356;2023-02-01T03:38:32;97841.94;;;1.58;94.10
58239;BME280;44037;55.638;37.356;2023-02-01T03:41:04;97847.06;;;1.58;94.26
58239;BME280;44037;55.638;37.356;2023-02-01T03:43:44;97843.63;;;1.58;93.92
58239;BME280;44037;55.638;37.356;2023-02-01T03:46:20;97845.28;;;1.54;93.69
58239;BME280;44037;55.638;37.356;2023-02-01T03:48:51;97852.09;;;1.55;93.68
58239;BME280;44037;55.638;37.356;2023-02-01T03:51:20;97854.59;;;1.52;93.63
58239;BME280;44037;55.638;37.356;2023-02-01T03:53:51;97855.47;;;1.51;93.88
58239;BME280;44037;55.638;37.356;2023-02-01T03:56:22;97852.91;;;1.51;94.02
58239;BME280;44037;55.638;37.356;2023-02-01T03:58:51;97858.00;;;1.51;93.96
58239;BME280;44037;55.638;37.356;2023-02-01T04:01:27;97859.69;;;1.52;94.04
58239;BME280;44037;55.638;37.356;2023-02-01T04:03:56;97857.19;;;1.53;94.13
58239;BME280;44037;55.638;37.356;2023-02-01T04:06:24;97872.53;;;1.55;94.17
58239;BME280;44037;55.638;37.356;2023-02-01T04:08:52;97871.72;;;1.58;94.13
58239;BME280;44037;55.638;37.356;2023-02-01T04:11:19;97873.41;;;1.57;94.21
58239;BME280;44037;55.638;37.356;2023-02-01T04:13:46;97873.47;;;1.60;94.14
58239;BME280;44037;55.638;37.356;2023-02-01T04:16:13;97873.47;;;1.60;93.91
58239;BME280;44037;55.638;37.356;2023-02-01T04:18:40;97870.88;;;1.59;94.10
58239;BME280;44037;55.638;37.356;2023-02-01T04:21:07;97881.13;;;1.60;93.92
58239;BME280;44037;55.638;37.356;2023-02-01T04:23:34;97874.31;;;1.59;94.04
58239;BME280;44037;55.638;37.356;2023-02-01T04:26:04;97881.13;;;1.60;93.96
58239;BME280;44037;55.638;37.356;2023-02-01T04:28:31;97887.91;;;1.58;93.93
58239;BME280;44037;55.638;37.356;2023-02-01T04:30:58;97884.47;;;1.58;93.71
58239;BME280;44037;55.638;37.356;2023-02-01T04:33:28;97892.06;;;1.53;93.38
58239;BME280;44037;55.638;37.356;2023-02-01T04:35:55;97887.81;;;1.53;93.96
58239;BME280;44037;55.638;37.356;2023-02-01T04:38:44;97894.59;;;1.53;93.92
58239;BME280;44037;55.638;37.356;2023-02-01T04:41:26;97891.22;;;1.54;93.82
58239;BME280;44037;55.638;37.356;2023-02-01T04:43:54;97898.00;;;1.52;93.90
58239;BME280;44037;55.638;37.356;2023-02-01T04:46:21;97898.88;;;1.52;93.91
58239;BME280;44037;55.638;37.356;2023-02-01T04:48:48;97903.16;;;1.53;93.93
58239;BME280;44037;55.638;37.356;2023-02-01T04:51:20;97903.09;;;1.52;93.63
58239;BME280;44037;55.638;37.356;2023-02-01T04:53:59;97909.94;;;1.53;94.02
58239;BME280;44037;55.638;37.356;2023-02-01T04:56:37;97909.97;;;1.55;94.01
58239;BME280;44037;55.638;37.356;2023-02-01T04:59:29;97910.88;;;1.58;94.19
58239;BME280;44037;55.638;37.356;2023-02-01T05:01:58;97910.94;;;1.63;94.02
58239;BME280;44037;55.638;37.356;2023-02-01T05:04:26;97907.56;;;1.62;94.31
58239;BME280;44037;55.638;37.356;2023-02-01T05:06:53;97910.09;;;1.62;93.95
58239;BME280;44037;55.638;37.356;2023-02-01T05:09:20;97913.50;;;1.61;94.02
58239;BME280;44037;55.638;37.356;2023-02-01T05:11:48;97916.88;;;1.62;93.94
58239;BME280;44037;55.638;37.356;2023-02-01T05:14:32;97910.94;;;1.63;94.19
58239;BME280;44037;55.638;37.356;2023-02-01T05:17:00;97919.44;;;1.62;93.80
58239;BME280;44037;55.638;37.356;2023-02-01T05:19:27;97921.16;;;1.61;93.74
58239;BME280;44037;55.638;37.356;2023-02-01T05:21:54;97921.97;;;1.60;93.95
58239;BME280;44037;55.638;37.356;2023-02-01T05:24:22;97916.88;;;1.60;94.26
58239;BME280;44037;55.638;37.356;2023-02-01T05:26:54;97916.06;;;1.64;94.32
58239;BME280;44037;55.638;37.356;2023-02-01T05:29:21;97921.19;;;1.64;93.94
58239;BME280;44037;55.638;37.356;2023-02-01T05:31:48;97923.72;;;1.63;94.11
58239;BME280;44037;55.638;37.356;2023-02-01T05:34:16;97924.56;;;1.62;93.94
58239;BME280;44037;55.638;37.356;2023-02-01T05:36:43;97923.66;;;1.60;93.78
58239;BME280;44037;55.638;37.356;2023-02-01T05:39:16;97922.75;;;1.58;93.78
58239;BME280;44037;55.638;37.356;2023-02-01T05:41:44;97925.38;;;1.59;93.90
58239;BME280;44037;55.638;37.356;2023-02-01T05:44:13;97935.56;;;1.59;93.65
58239;BME280;44037;55.638;37.356;2023-02-01T05:46:40;97929.66;;;1.60;93.95
58239;BME280;44037;55.638;37.356;2023-02-01T05:49:07;97942.41;;;1.60;93.57
58239;BME280;44037;55.638;37.356;2023-02-01T05:51:34;97942.34;;;1.57;93.70
58239;BME280;44037;55.638;37.356;2023-02-01T05:54:01;97941.50;;;1.57;93.74
58239;BME280;44037;55.638;37.356;2023-02-01T05:56:28;97938.91;;;1.55;93.73
58239;BME280;44037;55.638;37.356;2023-02-01T05:58:55;97938.91;;;1.55;93.83
58239;BME280;44037;55.638;37.356;2023-02-01T06:01:24;97935.44;;;1.53;93.58
58239;BME280;44037;55.638;37.356;2023-02-01T06:03:51;97940.56;;;1.53;93.72
58239;BME280;44037;55.638;37.356;2023-02-01T06:06:18;97940.56;;;1.53;93.41
58239;BME280;44037;55.638;37.356;2023-02-01T06:08:46;97944.81;;;1.51;93.84
58239;BME280;44037;55.638;37.356;2023-02-01T06:11:13;97943.94;;;1.52;93.77
58239;BME280;44037;55.638;37.356;2023-02-01T06:13:40;97941.44;;;1.53;93.86
58239;BME280;44037;55.638;37.356;2023-02-01T06:16:07;97949.16;;;1.58;94.16
58239;BME280;44037;55.638;37.356;2023-02-01T06:18:35;97946.63;;;1.60;93.81
58239;BME280;44037;55.638;37.356;2023-02-01T06:21:03;97943.28;;;1.62;93.78
58239;BME280;44037;55.638;37.356;2023-02-01T06:23:30;97945.88;;;1.65;93.76
58239;BME280;44037;55.638;37.356;2023-02-01T06:25:59;97951.94;;;1.69;93.71
58239;BME280;44037;55.638;37.356;2023-02-01T06:28:27;97945.13;;;1.71;94.03
58239;BME280;44037;55.638;37.356;2023-02-01T06:30:54;97956.19;;;1.70;93.34
58239;BME280;44037;55.638;37.356;2023-02-01T06:33:21;97956.22;;;1.72;93.31
58239;BME280;44037;55.638;37.356;2023-02-01T06:35:56;97959.66;;;1.74;93.15
58239;BME280;44037;55.638;37.356;2023-02-01T06:38:24;97962.16;;;1.72;93.21
58239;BME280;44037;55.638;37.356;2023-02-01T06:40:55;97967.28;;;1.72;93.07
58239;BME280;44037;55.638;37.356;2023-02-01T06:43:24;97959.66;;;1.74;93.23
58239;BME280;44037;55.638;37.356;2023-02-01T06:45:51;97966.50;;;1.76;93.05
58239;BME280;44037;55.638;37.356;2023-02-01T06:48:19;97969.13;;;1.81;92.83
58239;BME280;44037;55.638;37.356;2023-02-01T06:50:46;97977.72;;;1.84;92.84
58239;BME280;44037;55.638;37.356;2023-02-01T06:53:14;97968.31;;;1.83;92.81
58239;BME280;44037;55.638;37.356;2023-02-01T06:55:41;97964.94;;;1.84;92.30
58239;BME280;44037;55.638;37.356;2023-02-01T06:58:08;97968.31;;;1.83;92.70
58239;BME280;44037;55.638;37.356;2023-02-01T07:00:35;97969.22;;;1.86;92.54
58239;BME280;44037;55.638;37.356;2023-02-01T07:03:03;97970.09;;;1.86;92.48
58239;BME280;44037;55.638;37.356;2023-02-01T07:05:30;97967.56;;;1.88;92.25
58239;BME280;44037;55.638;37.356;2023-02-01T07:07:57;97972.72;;;1.91;92.04
58239;BME280;44037;55.638;37.356;2023-02-01T07:10:25;97980.41;;;1.92;91.94
58239;BME280;44037;55.638;37.356;2023-02-01T07:12:52;97974.50;;;1.95;91.69
58239;BME280;44037;55.638;37.356;2023-02-01T07:15:22;97976.16;;;1.93;91.63
58239;BME280;44037;55.638;37.356;2023-02-01T07:17:49;97972.72;;;1.91;91.74
58239;BME280;44037;55.638;37.356;2023-02-01T07:20:16;97976.94;;;1.90;91.52
58239;BME280;44037;55.638;37.356;2023-02-01T07:22:44;97975.28;;;1.91;91.70
58239;BME280;44037;55.638;37.356;2023-02-01T07:25:11;97982.94;;;1.91;91.40
58239;BME280;44037;55.638;37.356;2023-02-01T07:27:39;97983.84;;;1.94;91.31
58239;BME280;44037;55.638;37.356;2023-02-01T07:30:08;97985.56;;;1.95;91.41
58239;BME280;44037;55.638;37.356;2023-02-01T07:32:36;97988.13;;;1.97;91.26
58239;BME280;44037;55.638;37.356;2023-02-01T07:35:03;97983.06;;;1.98;91.35
58239;BME280;44037;55.638;37.356;2023-02-01T07:37:31;97986.53;;;2.02;90.86
58239;BME280;44037;55.638;37.356;2023-02-01T07:39:58;97984.06;;;2.07;90.89
58239;BME280;44037;55.638;37.356;2023-02-01T07:42:25;97987.50;;;2.09;90.67
58239;BME280;44037;55.638;37.356;2023-02-01T07:44:53;97989.22;;;2.10;90.77
58239;BME280;44037;55.638;37.356;2023-02-01T07:47:20;97996.06;;;2.11;90.87
58239;BME280;44037;55.638;37.356;2023-02-01T07:49:47;97990.94;;;2.11;90.34
58239;BME280;44037;55.638;37.356;2023-02-01T07:52:14;97993.56;;;2.15;90.67
58239;BME280;44037;55.638;37.356;2023-02-01T07:54:42;97985.91;;;2.17;89.59
58239;BME280;44037;55.638;37.356;2023-02-01T07:57:10;97984.19;;;2.14;89.49
58239;BME280;44037;55.638;37.356;2023-02-01T07:59:38;97985.84;;;2.11;89.32
58239;BME280;44037;55.638;37.356;2023-02-01T08:02:28;97984.94;;;2.09;89.27
58239;BME280;44037;55.638;37.356;2023-02-01T08:04:54;97989.16;;;2.07;89.05
58239;BME280;44037;55.638;37.356;2023-02-01T08:07:21;97991.72;;;2.08;89.38
58239;BME280;44037;55.638;37.356;2023-02-01T08:09:48;97989.28;;;2.14;89.36
58239;BME280;44037;55.638;37.356;2023-02-01T08:12:15;97985.97;;;2.20;88.98
58239;BME280;44037;55.638;37.356;2023-02-01T08:14:42;97981.00;;;2.29;89.16
58239;BME280;44037;55.638;37.356;2023-02-01T08:17:09;97980.34;;;2.41;88.90
58239;BME280;44037;55.638;37.356;2023-02-01T08:19:37;97977.13;;;2.55;88.70
58239;BME280;44037;55.638;37.356;2023-02-01T08:22:04;97977.25;;;2.64;88.08
58239;BME280;44037;55.638;37.356;2023-02-01T08:24:32;97976.59;;;2.76;88.03
58239;BME280;44037;55.638;37.356;2023-02-01T08:27:00;97981.81;;;2.85;87.95
58239;BME280;44037;55.638;37.356;2023-02-01T08:29:28;97976.75;;;2.91;87.51
58239;BME280;44037;55.638;37.356;2023-02-01T08:31:55;97980.25;;;2.95;87.72
58239;BME280;44037;55.638;37.356;2023-02-01T08:34:22;97976.91;;;3.01;87.84
58239;BME280;44037;55.638;37.356;2023-02-01T08:36:52;97982.03;;;3.02;87.07
58239;BME280;44037;55.638;37.356;2023-02-01T08:41:58;97976.75;;;2.91;86.19
58239;BME280;44037;55.638;37.356;2023-02-01T08:44:43;97981.81;;;2.85;86.31
58239;BME280;44037;55.638;37.356;2023-02-01T08:47:10;97980.00;;;2.78;86.50
58239;BME280;44037;55.638;37.356;2023-02-01T08:49:37;97973.13;;;2.74;85.80
58239;BME280;44037;55.638;37.356;2023-02-01T08:52:06;97979.88;;;2.69;85.94
58239;BME280;44037;55.638;37.356;2023-02-01T08:54:32;97979.81;;;2.66;85.73
58239;BME280;44037;55.638;37.356;2023-02-01T08:56:59;97974.75;;;2.69;85.85
58239;BME280;44037;55.638;37.356;2023-02-01T08:59:28;97977.38;;;2.72;85.80
58239;BME280;44037;55.638;37.356;2023-02-01T09:01:55;97974.88;;;2.76;86.08
58239;BME280;44037;55.638;37.356;2023-02-01T09:04:22;97968.06;;;2.77;85.17
58239;BME280;44037;55.638;37.356;2023-02-01T09:06:49;97973.19;;;2.80;85.06
58239;BME280;44037;55.638;37.356;2023-02-01T09:09:18;97963.97;;;2.91;84.95
58239;BME280;44037;55.638;37.356;2023-02-01T09:11:45;97964.16;;;3.07;84.39
58239;BME280;44037;55.638;37.356;2023-02-01T09:14:12;97961.84;;;3.29;84.36
58239;BME280;44037;55.638;37.356;2023-02-01T09:16:39;97965.59;;;3.59;83.51
58239;BME280;44037;55.638;37.356;2023-02-01T09:19:06;97972.50;;;3.64;83.42
58239;BME280;44037;55.638;37.356;2023-02-01T09:21:33;97960.44;;;3.52;82.74
58239;BME280;44037;55.638;37.356;2023-02-01T09:24:01;97959.34;;;3.32;81.90
58239;BME280;44037;55.638;37.356;2023-02-01T09:26:31;97959.09;;;3.12;82.31
58239;BME280;44037;55.638;37.356;2023-02-01T09:28:58;97959.00;;;3.02;82.52
58239;BME280;44037;55.638;37.356;2023-02-01T09:31:25;97957.22;;;2.98;81.62
58239;BME280;44037;55.638;37.356;2023-02-01T09:33:52;97964.03;;;2.96;82.48
58239;BME280;44037;55.638;37.356;2023-02-01T09:36:20;97953.00;;;2.99;82.03
58239;BME280;44037;55.638;37.356;2023-02-01T09:38:47;97952.22;;;3.06;81.46
58239;BME280;44037;55.638;37.356;2023-02-01T09:41:26;97947.94;;;3.03;81.64
58239;BME280;44037;55.638;37.356;2023-02-01T09:44:04;97952.06;;;2.92;82.37
58239;BME280;44037;55.638;37.356;2023-02-01T09:46:35;97960.47;;;2.82;82.36
58239;BME280;44037;55.638;37.356;2023-02-01T09:49:05;97957.78;;;2.74;82.78
58239;BME280;44037;55.638;37.356;2023-02-01T09:51:38;97959.47;;;2.70;82.68
58239;BME280;44037;55.638;37.356;2023-02-01T09:54:09;97958.53;;;2.67;82.55
58239;BME280;44037;55.638;37.356;2023-02-01T09:56:44;97957.63;;;2.61;82.37
58239;BME280;44037;55.638;37.356;2023-02-01T09:59:23;97957.56;;;2.58;81.96
58239;BME280;44037;55.638;37.356;2023-02-01T10:01:53;97951.53;;;2.53;81.97
58239;BME280;44037;55.638;37.356;2023-02-01T10:04:20;97956.63;;;2.50;82.05
58239;BME280;44037;55.638;37.356;2023-02-01T10:07:00;97950.63;;;2.50;82.63
58239;BME280;44037;55.638;37.356;2023-02-01T10:09:49;97954.97;;;2.54;82.94
58239;BME280;44037;55.638;37.356;2023-02-01T10:12:40;97944.00;;;2.63;82.55
58239;BME280;44037;55.638;37.356;2023-02-01T10:15:22;97951.84;;;2.78;82.43
58239;BME280;44037;55.638;37.356;2023-02-01T10:18:02;97940.97;;;2.93;81.64
58239;BME280;44037;55.638;37.356;2023-02-01T10:20:46;97941.03;;;2.98;81.61
58239;BME280;44037;55.638;37.356;2023-02-01T10:23:29;97939.38;;;3.00;81.58
58239;BME280;44037;55.638;37.356;2023-02-01T10:26:06;97945.38;;;3.05;81.51
58239;BME280;44037;55.638;37.356;2023-02-01T10:28:36;97939.56;;;3.17;81.58
58239;BME280;44037;55.638;37.356;2023-02-01T10:31:08;97943.97;;;3.30;81.98
58239;BME280;44037;55.638;37.356;2023-02-01T10:33:39;97942.34;;;3.38;81.75
58239;BME280;44037;55.638;37.356;2023-02-01T10:36:14;97936.44;;;3.44;81.88
58239;BME280;44037;55.638;37.356;2023-02-01T10:38:44;97939.91;;;3.49;82.50
58239;BME280;44037;55.638;37.356;2023-02-01T10:41:13;97939.06;;;3.52;81.72
58239;BME280;44037;55.638;37.356;2023-02-01T10:43:42;97945.06;;;3.56;82.03
58239;BME280;44037;55.638;37.356;2023-02-01T10:46:11;97932.38;;;3.65;81.54
58239;BME280;44037;55.638;37.356;2023-02-01T10:48:39;97938.38;;;3.70;81.42
58239;BME280;44037;55.638;37.356;2023-02-01T10:51:12;97940.94;;;3.68;81.36
58239;BME280;44037;55.638;37.356;2023-02-01T10:53:45;97935.88;;;3.72;81.61
58239;BME280;44037;55.638;37.356;2023-02-01T10:56:22;97935.84;;;3.70;80.79
58239;BME280;44037;55.638;37.356;2023-02-01T10:58:50;97948.53;;;3.58;81.04
58239;BME280;44037;55.638;37.356;2023-02-01T11:01:22;97937.28;;;3.43;80.53
58239;BME280;44037;55.638;37.356;2023-02-01T11:03:53;97938.00;;;3.31;80.96
58239;BME280;44037;55.638;37.356;2023-02-01T11:06:27;97937.88;;;3.22;81.17
58239;BME280;44037;55.638;37.356;2023-02-01T11:08:56;97931.84;;;3.12;80.86
58239;BME280;44037;55.638;37.356;2023-02-01T11:11:24;97941.88;;;2.98;80.97
58239;BME280;44037;55.638;37.356;2023-02-01T11:13:54;97938.44;;;2.93;80.67
58239;BME280;44037;55.638;37.356;2023-02-01T11:16:33;97938.38;;;2.90;81.15
58239;BME280;44037;55.638;37.356;2023-02-01T11:19:01;97942.56;;;2.83;81.09
58239;BME280;44037;55.638;37.356;2023-02-01T11:21:28;97940.72;;;2.73;81.08
58239;BME280;44037;55.638;37.356;2023-02-01T11:23:55;97944.03;;;2.66;81.50
58239;BME280;44037;55.638;37.356;2023-02-01T11:26:27;97947.34;;;2.57;81.18
58239;BME280;44037;55.638;37.356;2023-02-01T11:28:58;97946.38;;;2.50;80.94
58239;BME280;44037;55.638;37.356;2023-02-01T11:31:28;97948.94;;;2.50;81.47
58239;BME280;44037;55.638;37.356;2023-02-01T11:33:59;97947.22;;;2.49;81.75
58239;BME280;44037;55.638;37.356;2023-02-01T11:36:30;97948.91;;;2.47;81.44
58239;BME280;44037;55.638;37.356;2023-02-01T11:39:14;97957.44;;;2.49;81.96
58239;BME280;44037;55.638;37.356;2023-02-01T11:41:55;97944.63;;;2.46;81.83
58239;BME280;44037;55.638;37.356;2023-02-01T11:44:32;97954.84;;;2.46;81.94
58239;BME280;44037;55.638;37.356;2023-02-01T11:47:20;97950.56;;;2.45;81.87
58239;BME280;44037;55.638;37.356;2023-02-01T11:49:47;97947.13;;;2.43;81.85
58239;BME280;44037;55.638;37.356;2023-02-01T11:52:20;97954.06;;;2.50;82.08
58239;BME280;44037;55.638;37.356;2023-02-01T11:55:07;97959.28;;;2.59;81.94
58239;BME280;44037;55.638;37.356;2023-02-01T11:57:46;97956.81;;;2.66;82.21
58239;BME280;44037;55.638;37.356;2023-02-01T12:00:32;97958.50;;;2.64;82.18
58239;BME280;44037;55.638;37.356;2023-02-01T12:06:18;97963.53;;;2.57;82.40
58239;BME280;44037;55.638;37.356;2023-02-01T12:11:57;97964.97;;;2.40;82.03
58239;BME280;44037;55.638;37.356;2023-02-01T12:14:43;97964.94;;;2.37;82.39
58239;BME280;44037;55.638;37.356;2023-02-01T12:17:32;97964.03;;;2.33;82.42
58239;BME280;44037;55.638;37.356;2023-02-01T12:20:15;97966.50;;;2.28;82.36
58239;BME280;44037;55.638;37.356;2023-02-01T12:22:54;97964.78;;;2.27;82.42
58239;BME280;44037;55.638;37.356;2023-02-01T12:25:59;97969.88;;;2.26;82.51
58239;BME280;44037;55.638;37.356;2023-02-01T12:28:40;97973.25;;;2.25;82.50
58239;BME280;44037;55.638;37.356;2023-02-01T12:31:30;97977.53;;;2.24;82.69
58239;BME280;44037;55.638;37.356;2023-02-01T12:34:27;97971.59;;;2.27;82.61
58239;BME280;44037;55.638;37.356;2023-02-01T12:37:05;97975.06;;;2.30;82.43
58239;BME280;44037;55.638;37.356;2023-02-01T12:39:39;97978.50;;;2.33;82.70
58239;BME280;44037;55.638;37.356;2023-02-01T12:42:13;97981.09;;;2.36;82.48
58239;BME280;44037;55.638;37.356;2023-02-01T12:44:47;97976.91;;;2.39;82.48
58239;BME280;44037;55.638;37.356;2023-02-01T12:47:21;97977.78;;;2.41;82.10
58239;BME280;44037;55.638;37.356;2023-02-01T12:49:55;97977.75;;;2.40;82.30
58239;BME280;44037;55.638;37.356;2023-02-01T12:52:30;97983.75;;;2.42;82.07
58239;BME280;44037;55.638;37.356;2023-02-01T12:55:06;97977.72;;;2.37;81.71
58239;BME280;44037;55.638;37.356;2023-02-01T12:57:38;97985.31;;;2.32;81.92
58239;BME280;44037;55.638;37.356;2023-02-01T13:00:16;97983.53;;;2.28;81.90
58239;BME280;44037;55.638;37.356;2023-02-01T13:02:54;97983.47;;;2.25;82.08
58239;BME280;44037;55.638;37.356;2023-02-01T13:05:28;97980.03;;;2.21;81.91
58239;BME280;44037;55.638;37.356;2023-02-01T13:08:01;97974.91;;;2.20;82.08
58239;BME280;44037;55.638;37.356;2023-02-01T13:10:33;97979.09;;;2.16;82.29
58239;BME280;44037;55.638;37.356;2023-02-01T13:13:10;97982.47;;;2.15;82.29
58239;BME280;44037;55.638;37.356;2023-02-01T13:15:41;97984.09;;;2.10;82.06
58239;BME280;44037;55.638;37.356;2023-02-01T13:18:14;97986.59;;;2.05;81.48
58239;BME280;44037;55.638;37.356;2023-02-01T13:20:48;97980.53;;;1.98;81.90
58239;BME280;44037;55.638;37.356;2023-02-01T13:23:24;97984.75;;;1.98;82.40
58239;BME280;44037;55.638;37.356;2023-02-01T13:25:52;97979.69;;;2.01;82.16
58239;BME280;44037;55.638;37.356;2023-02-01T13:28:25;97983.97;;;2.01;81.95
58239;BME280;44037;55.638;37.356;2023-02-01T13:34:38;97989.72;;;1.90;82.22
58239;BME280;44037;55.638;37.356;2023-02-01T13:37:29;97993.09;;;1.86;82.14
58239;BME280;44037;55.638;37.356;2023-02-01T13:40:17;97994.66;;;1.79;81.99
58239;BME280;44037;55.638;37.356;2023-02-01T13:42:50;97987.75;;;1.74;82.29
58239;BME280;44037;55.638;37.356;2023-02-01T13:45:20;97997.00;;;1.68;82.03
58239;BME280;44037;55.638;37.356;2023-02-01T13:47:50;97985.91;;;1.66;82.48
58239;BME280;44037;55.638;37.356;2023-02-01T13:50:25;97989.25;;;1.62;82.21
58239;BME280;44037;55.638;37.356;2023-02-01T13:52:54;97987.47;;;1.60;82.51